M I D A S
Marine Information and Data Acquisition System
Tripno 843 of the Zeeleeuw from 2005-01-28 07:43:36 to 2005-01-28 13:05:56
Back to CruiseResearch ActivitiesStationsMapUnderway DataData graphs

EquipmentUnitsComment
TimeDGPSUTC
LatitudeDGPSDM.mWGS84
LongitudeDGPSDM.mWGS84
HeadingGyrodeg 
SOGDGPSknotsSpeed over ground
COGDGPSdegCourse over ground
DepthEcho soundermeters200 kHz
Missing or incorrect values are displayed as -999
Navigation data collected by the RV Zeeleeuw from 2005-01-28 07:44:36 to 2005-01-28 13:14:41
Time Latitude Longitude Heading SOG COG Depth
2005-01-28 07:45:41 51°13.606 2°56.054 116.7 0.5 114 -999
2005-01-28 07:46:40 51°13.576 2°56.111 137 3.3 136 8.8
2005-01-28 07:47:41 51°13.54 2°56.176 129.2 3.4 127 9.3
2005-01-28 07:48:41 51°13.537 2°56.232 72.7 0.3 237 8.3
2005-01-28 07:49:42 51°13.541 2°56.23 42.8 0.3 24 -999
2005-01-28 07:50:41 51°13.541 2°56.225 9.2 0.3 24 -999
2005-01-28 07:51:42 51°13.539 2°56.225 339.1 0.7 348 -999
2005-01-28 07:52:41 51°13.52 2°56.249 328.5 0.8 141 -999
2005-01-28 07:53:40 51°13.522 2°56.244 309.6 0.4 318 9.4
2005-01-28 07:54:41 51°13.53 2°56.232 303.7 0.6 308 9.1
2005-01-28 07:55:41 51°13.536 2°56.214 294.3 0.7 293 9.4
2005-01-28 07:56:40 51°13.54 2°56.193 291.7 1 280 9.2
2005-01-28 07:57:41 51°13.547 2°56.157 298.5 1.6 290 9.4
2005-01-28 07:58:41 51°13.563 2°56.108 304.8 2.3 299 9.1
2005-01-28 07:59:41 51°13.589 2°56.043 309.6 3.2 306 9.4
2005-01-28 08:00:40 51°13.627 2°55.963 311.1 4.2 307 9.4
2005-01-28 08:01:41 51°13.672 2°55.859 308.4 5.4 303 9.2
2005-01-28 08:02:41 51°13.733 2°55.731 314.8 6.4 311 9.5
2005-01-28 08:03:41 51°13.83 2°55.628 336.5 7.6 332 9.9
2005-01-28 08:04:40 51°13.961 2°55.533 339.9 9 334 9.2
2005-01-28 08:05:40 51°14.103 2°55.432 340 9.7 334 8.8
2005-01-28 08:06:41 51°14.243 2°55.287 325.1 10.1 320 9.8
2005-01-28 08:07:41 51°14.354 2°55.071 310.2 10.8 306 9.3
2005-01-28 08:08:40 51°14.481 2°54.833 326.4 12.6 318 9.5
2005-01-28 08:09:41 51°14.65 2°54.627 335.4 12.7 325 8.5
2005-01-28 08:10:41 51°14.837 2°54.459 341 12.9 331 8.3
2005-01-28 08:11:40 51°15.015 2°54.297 339.3 12.3 329 7.3
2005-01-28 08:12:41 51°15.195 2°54.13 340.9 12.5 331 8
2005-01-28 08:13:41 51°15.382 2°53.965 340.3 13 331 8.6
2005-01-28 08:14:41 51°15.572 2°53.79 339.5 13.2 329 9.4
2005-01-28 08:15:41 51°15.756 2°53.615 339.8 13.1 329 10.5
2005-01-28 08:16:41 51°15.942 2°53.445 341.1 12.7 330 10.5
2005-01-28 08:17:41 51°16.133 2°53.3 345.1 12.9 335 11.1
2005-01-28 08:18:41 51°16.327 2°53.148 344.7 12.8 334 11.1
2005-01-28 08:19:41 51°16.518 2°52.999 344 12.9 334 11.1
2005-01-28 08:20:41 51°16.711 2°52.853 344.7 12.8 335 10
2005-01-28 08:21:41 51°16.9 2°52.71 343.8 12.5 334 8
2005-01-28 08:22:41 51°17.078 2°52.545 338.9 12.4 328 8.3
2005-01-28 08:23:41 51°17.249 2°52.365 335.3 12.6 324 9.2
2005-01-28 08:24:40 51°17.419 2°52.168 334.4 12.6 324 9.4
2005-01-28 08:25:41 51°17.581 2°51.95 325 12.8 314 9.5
2005-01-28 08:26:41 51°17.72 2°51.69 319 12.7 309 9.1
2005-01-28 08:27:40 51°17.855 2°51.425 319.5 13.1 309 9.4
2005-01-28 08:28:41 51°17.997 2°51.15 320.2 13.3 309 10.4
2005-01-28 08:29:41 51°18.131 2°50.871 315.2 13.2 304 12
2005-01-28 08:30:41 51°18.255 2°50.577 315.9 12.8 303 12.5
2005-01-28 08:31:41 51°18.375 2°50.294 316.1 13.1 305 13.8
2005-01-28 08:32:41 51°18.498 2°50 315.7 13.2 304 13.1
2005-01-28 08:33:40 51°18.62 2°49.717 316.3 13 305 11.3
2005-01-28 08:34:41 51°18.746 2°49.433 316.5 13 305 9.7
2005-01-28 08:35:41 51°18.871 2°49.147 316.4 13.2 305 10.4
2005-01-28 08:36:41 51°19 2°48.858 315.7 13.3 305 12.2
2005-01-28 08:37:41 51°19.123 2°48.574 315.6 12.6 304 14.5
2005-01-28 08:38:41 51°19.245 2°48.29 316.4 13 305 33.7
2005-01-28 08:39:41 51°19.37 2°47.996 316.1 13.1 305 18.8
2005-01-28 08:40:41 51°19.493 2°47.707 315.7 13.4 304 21.4
2005-01-28 08:41:41 51°19.602 2°47.387 304.1 13.5 293 20.9
2005-01-28 08:42:41 51°19.682 2°47.05 301.6 13.7 290 21.5
2005-01-28 08:43:41 51°19.763 2°46.708 301.9 13.7 291 19
2005-01-28 08:44:41 51°19.842 2°46.371 301.5 13.6 291 14.9
2005-01-28 08:45:41 51°19.924 2°46.033 302.2 13.8 292 12.6
2005-01-28 08:46:40 51°20.007 2°45.697 302.9 13.8 291 13.1
2005-01-28 08:47:41 51°20.091 2°45.353 302.3 13.7 292 21.7
2005-01-28 08:48:40 51°20.163 2°45.013 293.9 14 281 23.9
2005-01-28 08:49:41 51°20.196 2°44.635 288.8 14.2 278 24.7
2005-01-28 08:50:41 51°20.225 2°44.254 287.7 14.3 278 25.8
2005-01-28 08:51:40 51°20.257 2°43.884 287 14.4 276 26.1
2005-01-28 08:52:41 51°20.287 2°43.504 287.5 14.1 277 26.3
2005-01-28 08:53:41 51°20.319 2°43.134 287.9 14.3 278 25.8
2005-01-28 08:54:41 51°20.353 2°42.764 289.2 14.1 279 24.1
2005-01-28 08:55:41 51°20.387 2°42.389 288.1 14.4 279 20.2
2005-01-28 08:56:41 51°20.417 2°42.019 289 14.3 278 18.1
2005-01-28 08:57:40 51°20.454 2°41.647 288.8 14.2 280 20.2
2005-01-28 08:58:41 51°20.49 2°41.27 287.7 14.3 279 22.4
2005-01-28 08:59:40 51°20.52 2°40.9 287.9 14.1 277 26.9
2005-01-28 09:00:40 51°20.553 2°40.525 288.2 14.2 278 26.9
2005-01-28 09:01:41 51°20.586 2°40.147 287.5 14.2 279 27
2005-01-28 09:02:41 51°20.619 2°39.773 287.3 14.4 278 25.3
2005-01-28 09:03:40 51°20.652 2°39.405 287.6 14.1 278 25.2
2005-01-28 09:04:41 51°20.679 2°39.032 288.8 14.1 276 25.2
2005-01-28 09:05:40 51°20.712 2°38.661 288.1 14.2 278 24.8
2005-01-28 09:06:41 51°20.743 2°38.287 288.3 13.8 277 23.7
2005-01-28 09:07:40 51°20.776 2°37.918 289.5 14.1 277 23.9
2005-01-28 09:08:41 51°20.809 2°37.539 288.5 14.3 275 23.8
2005-01-28 09:09:41 51°20.838 2°37.173 287.2 14.1 276 22.6
2005-01-28 09:10:41 51°20.871 2°36.796 287.8 14.5 279 23.1
2005-01-28 09:11:41 51°20.908 2°36.414 288.3 14.6 278 24.2
2005-01-28 09:12:41 51°20.94 2°36.037 288.5 14.4 278 27.7
2005-01-28 09:13:41 51°20.971 2°35.649 286.7 14.6 278 30.2
2005-01-28 09:14:41 51°21.004 2°35.269 289 14.5 279 29.2
2005-01-28 09:15:41 51°21.034 2°34.884 288.1 14.7 277 31.8
2005-01-28 09:16:41 51°21.065 2°34.499 287.7 14.9 279 31.3
2005-01-28 09:17:41 51°21.097 2°34.113 288.6 14.7 276 30.9
2005-01-28 09:18:40 51°21.127 2°33.737 287.2 14.2 279 32.1
2005-01-28 09:19:41 51°21.231 2°33.429 329.1 12.6 322 31.6
2005-01-28 09:20:41 51°21.41 2°33.318 357.9 11.6 348 29.7
2005-01-28 09:21:41 51°21.592 2°33.257 359 11 348 24.8
2005-01-28 09:22:40 51°21.778 2°33.2 359.2 11.4 350 23
2005-01-28 09:23:40 51°21.97 2°33.14 358.8 11.4 350 48.2
2005-01-28 09:24:41 51°22.16 2°33.074 359.4 11.4 347 30.3
2005-01-28 09:25:40 51°22.341 2°33.009 359.3 11.8 348 31.3
2005-01-28 09:26:41 51°22.534 2°32.941 -999 11.9 347 31.3
2005-01-28 09:27:41 51°22.678 2°32.729 313 12.6 302 30.8
2005-01-28 09:28:41 51°22.729 2°32.365 285.2 14.7 270 31.4
2005-01-28 09:29:41 51°22.707 2°31.979 273.5 14.9 266 30.4
2005-01-28 09:30:40 51°22.682 2°31.591 274.6 14.7 264 31.2
2005-01-28 09:31:40 51°22.66 2°31.203 274.6 14.6 263 28.4
2005-01-28 09:32:41 51°22.642 2°30.81 273 15 259 29.1
2005-01-28 09:33:41 51°22.623 2°30.423 276.7 14.8 268 32.3
2005-01-28 09:34:41 51°22.608 2°30.033 276.8 14.4 265 32.1
2005-01-28 09:35:41 51°22.591 2°29.64 275.2 14.8 265 33.9
2005-01-28 09:36:41 51°22.564 2°29.251 271 15 265 33.5
2005-01-28 09:37:41 51°22.531 2°28.856 271.8 15.1 263 33.2
2005-01-28 09:38:41 51°22.498 2°28.455 272.6 15.4 263 34.3
2005-01-28 09:39:41 51°22.465 2°28.052 275.4 15.1 268 35
2005-01-28 09:40:41 51°22.446 2°27.654 277.5 15.2 265 34.9
2005-01-28 09:41:41 51°22.434 2°27.256 280 14.8 267 34.6
2005-01-28 09:42:41 51°22.435 2°26.864 281.3 14.7 268 35
2005-01-28 09:43:40 51°22.436 2°26.482 282.9 14.5 271 33.1
2005-01-28 09:44:41 51°22.472 2°26.105 297.7 13.7 293 32.5
2005-01-28 09:45:41 51°22.566 2°25.789 315.1 13.4 301 24.9
2005-01-28 09:46:41 51°22.706 2°25.542 332.3 12.2 317 19.8
2005-01-28 09:47:40 51°22.874 2°25.362 343.6 11.9 333 27
2005-01-28 09:48:41 51°23.058 2°25.246 355.7 11.7 338 32.6
2005-01-28 09:49:41 51°23.242 2°25.223 12.3 11.2 3 33.3
2005-01-28 09:50:41 51°23.422 2°25.275 18 11.4 8 34.2
2005-01-28 09:51:40 51°23.595 2°25.316 16.6 11 8 34
2005-01-28 09:52:41 51°23.777 2°25.348 15.2 11.1 7 34.1
2005-01-28 09:53:40 51°23.959 2°25.376 14 10.8 5 34
2005-01-28 09:54:41 51°24.139 2°25.408 15 10.7 8 33.9
2005-01-28 09:55:40 51°24.31 2°25.429 14.8 9.6 6 33.2
2005-01-28 09:56:41 51°24.481 2°25.449 13.7 10 4 34.5
2005-01-28 09:57:41 51°24.658 2°25.468 14.8 11.1 7 35
2005-01-28 09:58:41 51°24.827 2°25.503 18.8 9.6 8 35.6
2005-01-28 09:59:41 51°24.998 2°25.543 18.5 10.6 8 36
2005-01-28 10:00:40 51°25.17 2°25.579 17.4 10.7 9 35.2
2005-01-28 10:01:40 51°25.341 2°25.624 18.6 10.5 9 34
2005-01-28 10:02:41 51°25.518 2°25.669 17.2 10.8 8 35.7
2005-01-28 10:03:41 51°25.696 2°25.709 17.7 10.8 10 33.6
2005-01-28 10:04:40 51°25.875 2°25.762 18.7 10.9 11 32.2
2005-01-28 10:05:41 51°26.054 2°25.817 19.1 10.8 10 28.2
2005-01-28 10:06:41 51°26.231 2°25.873 19.6 11.3 12 24.3
2005-01-28 10:07:41 51°26.412 2°25.925 18 11.4 8 23.3
2005-01-28 10:08:41 51°26.578 2°25.985 20.8 10.5 12 24.7
2005-01-28 10:09:41 51°26.756 2°26.039 18.7 10.7 12 25
2005-01-28 10:10:40 51°26.934 2°26.094 18.7 11.1 12 28.3
2005-01-28 10:11:41 51°27.11 2°26.156 21 10.9 13 33.8
2005-01-28 10:12:41 51°27.286 2°26.213 20 10.5 11 33.9
2005-01-28 10:13:41 51°27.467 2°26.273 19.4 11.3 15 34.2
2005-01-28 10:14:41 51°27.643 2°26.333 19.5 11 13 34.6
2005-01-28 10:15:41 51°27.821 2°26.393 20 10.3 13 34.5
2005-01-28 10:16:41 51°27.997 2°26.456 20.5 10.3 14 35.2
2005-01-28 10:17:41 51°28.167 2°26.514 18.3 10.7 10 4.3
2005-01-28 10:18:40 51°28.341 2°26.572 18.9 10.5 13 38.6
2005-01-28 10:19:41 51°28.516 2°26.635 19.7 10.4 13 35.8
2005-01-28 10:20:41 51°28.693 2°26.693 20.1 10.7 11 35.3
2005-01-28 10:21:41 51°28.793 2°26.72 15.3 5.4 10 36
2005-01-28 10:22:41 51°28.79 2°26.711 24.9 0.7 197 35.8
2005-01-28 10:23:41 51°28.76 2°26.696 52.4 2 207 35.5
2005-01-28 10:24:41 51°28.724 2°26.671 87.2 2.5 199 35.8
2005-01-28 10:25:41 51°28.689 2°26.645 106.4 1.9 206 35.9
2005-01-28 10:26:41 51°28.654 2°26.62 110.1 3.4 204 35.6
2005-01-28 10:27:41 51°28.617 2°26.597 110.1 2.5 196 35.8
2005-01-28 10:28:40 51°28.581 2°26.581 99.4 1.9 193 36.2
2005-01-28 10:29:41 51°28.559 2°26.627 64.6 3 83 35.4
2005-01-28 10:30:41 51°28.602 2°26.653 4.2 3.1 358 35
2005-01-28 10:31:41 51°28.735 2°26.571 353.2 10.1 342 35.7
2005-01-28 10:32:41 51°28.906 2°26.488 354.6 11.4 343 35.3
2005-01-28 10:33:41 51°29.08 2°26.409 355.1 10.4 344 32.2
2005-01-28 10:34:41 51°29.252 2°26.337 355.1 10.8 347 36.2
2005-01-28 10:35:40 51°29.426 2°26.261 354.9 10.6 347 33.1
2005-01-28 10:36:41 51°29.606 2°26.184 356.1 10.8 346 31.2
2005-01-28 10:37:41 51°29.772 2°26.106 354.1 10.8 345 29
2005-01-28 10:38:41 51°29.952 2°26.027 356.6 11.1 345 29
2005-01-28 10:39:41 51°30.131 2°25.949 356.3 11.5 347 31.2
2005-01-28 10:40:41 51°30.308 2°25.873 355.7 10.7 343 32.8
2005-01-28 10:41:41 51°30.467 2°25.794 355.3 10.5 343 36
2005-01-28 10:42:41 51°30.641 2°25.71 357.3 10.6 346 38.4
2005-01-28 10:43:41 51°30.81 2°25.626 354.9 11.3 342 41.7
2005-01-28 10:44:41 51°30.983 2°25.543 355.8 11.6 344 46.8
2005-01-28 10:45:41 51°31.159 2°25.464 357.2 11.1 347 42.4
2005-01-28 10:46:42 51°31.335 2°25.381 354.5 9.8 341 30.7
2005-01-28 10:47:41 51°31.487 2°25.305 354.5 9.5 344 42.8
2005-01-28 10:48:41 51°31.665 2°25.225 355.3 10.7 344 37.3
2005-01-28 10:49:41 51°31.848 2°25.164 1.4 11 351 40.3
2005-01-28 10:50:41 51°32.027 2°25.135 7.2 10.7 359 37.7
2005-01-28 10:51:41 51°32.197 2°25.208 32.1 10.6 31 37.3
2005-01-28 10:52:41 51°32.323 2°25.399 47.7 10.9 45 38.2
2005-01-28 10:53:41 51°32.44 2°25.614 50.3 10.9 51 39
2005-01-28 10:54:41 51°32.559 2°25.846 51.9 11.3 50 39.9
2005-01-28 10:55:41 51°32.674 2°26.085 53.4 10.7 55 39.4
2005-01-28 10:56:41 51°32.773 2°26.332 60 11.7 60 38.8
2005-01-28 10:57:41 51°32.846 2°26.612 68.9 11.4 69 38.3
2005-01-28 10:58:41 51°32.883 2°26.918 74.7 11.5 77 38.5
2005-01-28 10:59:40 51°32.923 2°27.22 75 11.7 78 38
2005-01-28 11:00:41 51°32.974 2°27.524 72.7 11.8 77 39.4
2005-01-28 11:01:41 51°33.023 2°27.825 73.1 11.6 76 37.6
2005-01-28 11:02:40 51°33.073 2°28.12 71.8 11.6 74 37.2
2005-01-28 11:03:41 51°33.123 2°28.423 73.8 11.6 75 39.7
2005-01-28 11:04:41 51°33.166 2°28.727 75.7 11.8 78 39.1
2005-01-28 11:05:41 51°33.204 2°29.03 74.9 11.7 79 39
2005-01-28 11:06:41 51°33.242 2°29.337 76.7 11.4 77 39.6
2005-01-28 11:07:41 51°33.28 2°29.643 74.7 11.7 78 43.5
2005-01-28 11:08:41 51°33.313 2°29.939 76 11.5 73 40.9
2005-01-28 11:09:41 51°33.358 2°30.242 74.5 11.6 78 41.4
2005-01-28 11:10:41 51°33.4 2°30.549 74.2 11.8 77 40.6
2005-01-28 11:11:41 51°33.441 2°30.851 75.7 12.1 77 38
2005-01-28 11:12:41 51°33.478 2°31.152 76.6 11.4 82 35.2
2005-01-28 11:13:41 51°33.52 2°31.457 75.5 11.6 80 -999
2005-01-28 11:14:41 51°33.523 2°31.774 98.7 12.3 100 29.4
2005-01-28 11:15:41 51°33.401 2°32.052 135.1 13.6 136 30.1
2005-01-28 11:16:41 51°33.198 2°32.227 158 14.2 162 29.6
2005-01-28 11:17:41 51°32.968 2°32.307 168.6 14.6 171 25.7
2005-01-28 11:18:41 51°32.725 2°32.361 164.5 13.9 173 24.6
2005-01-28 11:19:41 51°32.49 2°32.427 165.8 14.4 165 31.5
2005-01-28 11:20:41 51°32.254 2°32.489 168.4 14.3 168 34.6
2005-01-28 11:21:41 51°32.016 2°32.559 169.2 14.2 168 36.4
2005-01-28 11:22:41 51°31.779 2°32.631 168.1 14.9 174 37.2
2005-01-28 11:23:41 51°31.542 2°32.704 169.9 13.3 174 36.6
2005-01-28 11:24:41 51°31.31 2°32.782 166.3 13.7 170 36
2005-01-28 11:25:41 51°31.076 2°32.862 167.6 14.7 163 34.9
2005-01-28 11:26:41 51°30.844 2°32.951 164.3 14.1 168 30.1
2005-01-28 11:27:41 51°30.611 2°33.035 168 14.7 172 25.2
2005-01-28 11:28:41 51°30.375 2°33.104 169.7 13 174 21.3
2005-01-28 11:29:41 51°30.145 2°33.19 163.4 14.3 167 21.3
2005-01-28 11:30:41 51°29.919 2°33.277 156.2 14.8 161 21
2005-01-28 11:31:40 51°29.703 2°33.404 148.6 13 159 19.2
2005-01-28 11:32:41 51°29.496 2°33.594 146.2 14.5 146 15.6
2005-01-28 11:33:41 51°29.307 2°33.795 141.5 13.9 145 28.3
2005-01-28 11:34:41 51°29.112 2°34.001 138.9 13.9 145 39
2005-01-28 11:35:41 51°28.921 2°34.223 143.3 15.2 143 38.7
2005-01-28 11:36:41 51°28.739 2°34.451 138.1 13.9 142 40.6
2005-01-28 11:37:41 51°28.556 2°34.677 138.4 14.1 149 38.7
2005-01-28 11:38:41 51°28.37 2°34.908 136.6 13.7 143 37.5
2005-01-28 11:39:40 51°28.191 2°35.133 138.9 14.4 140 35.1
2005-01-28 11:40:41 51°28.008 2°35.358 138.6 14.3 136 34.5
2005-01-28 11:41:41 51°27.825 2°35.584 139.3 13.5 146 26.5
2005-01-28 11:42:41 51°27.643 2°35.806 140.1 14 144 31.2
2005-01-28 11:43:41 51°27.46 2°36.028 133.2 13.9 143 34
2005-01-28 11:44:41 51°27.283 2°36.255 138.6 13.8 143 33.8
2005-01-28 11:45:41 51°27.102 2°36.496 142.1 13.9 151 34.1
2005-01-28 11:46:41 51°26.926 2°36.737 134.1 13.3 135 34.7
2005-01-28 11:47:41 51°26.746 2°36.972 136.4 14.3 140 34.6
2005-01-28 11:48:41 51°26.573 2°37.212 137 13.5 138 35.4
2005-01-28 11:49:41 51°26.403 2°37.449 133.9 13.8 134 35.4
2005-01-28 11:50:41 51°26.235 2°37.687 132.3 13.2 137 35
2005-01-28 11:51:41 51°26.073 2°37.949 129.8 14.2 138 33.9
2005-01-28 11:52:41 51°25.912 2°38.212 133.2 13.9 132 34.3
2005-01-28 11:53:41 51°25.755 2°38.473 124.4 13.7 133 34.4
2005-01-28 11:54:41 51°25.619 2°38.761 129.8 14.1 129 38
2005-01-28 11:55:41 51°25.479 2°39.037 123.8 13.4 127 33
2005-01-28 11:56:41 51°25.348 2°39.32 122.5 12.8 121 32.1
2005-01-28 11:57:41 51°25.219 2°39.61 123.4 13.8 130 30.4
2005-01-28 11:58:41 51°25.088 2°39.894 122 13.7 133 28.8
2005-01-28 11:59:41 51°24.948 2°40.166 125 13.9 127 27.7
2005-01-28 12:00:41 51°24.796 2°40.436 126.1 13.1 129 27.5
2005-01-28 12:01:41 51°24.652 2°40.706 126 13.4 137 29.1
2005-01-28 12:02:41 51°24.504 2°40.974 132 13.6 133 27.1
2005-01-28 12:03:41 51°24.351 2°41.241 128.5 14 131 25.7
2005-01-28 12:04:41 51°24.198 2°41.512 129.7 13.8 128 31
2005-01-28 12:05:42 51°24.04 2°41.776 130.9 14.1 134 29.9
2005-01-28 12:06:41 51°23.888 2°42.037 131.4 13.8 139 29.3
2005-01-28 12:07:42 51°23.733 2°42.313 127.1 14.4 131 29.8
2005-01-28 12:08:41 51°23.583 2°42.584 127.9 13 132 27.3
2005-01-28 12:09:41 51°23.428 2°42.851 135.6 13.5 138 28.8
2005-01-28 12:10:41 51°23.23 2°43.01 168.4 12.4 169 28.9
2005-01-28 12:11:41 51°23 2°43.025 178.6 13.6 181 27.6
2005-01-28 12:12:41 51°22.768 2°43.044 173.4 14 171 28.9
2005-01-28 12:13:41 51°22.537 2°43.068 177.3 14.1 178 26.5
2005-01-28 12:14:42 51°22.302 2°43.094 175.8 14.8 175 26
2005-01-28 12:15:41 51°22.068 2°43.12 176 14.8 173 23.7
2005-01-28 12:16:41 51°21.839 2°43.159 175 13.7 175 26.8
2005-01-28 12:17:41 51°21.609 2°43.218 169.3 14.3 168 24.6
2005-01-28 12:18:42 51°21.371 2°43.277 165.3 14.8 172 23.4
2005-01-28 12:19:42 51°21.168 2°43.46 146.6 14.4 146 24.4
2005-01-28 12:20:41 51°20.978 2°43.676 143.4 13.3 140 26.1
2005-01-28 12:21:41 51°20.8 2°43.916 137.2 14.2 135 28.8
2005-01-28 12:22:40 51°20.651 2°44.186 124.9 13.4 126 29.6
2005-01-28 12:23:41 51°20.529 2°44.501 121.2 13.5 122 29.7
2005-01-28 12:24:41 51°20.41 2°44.808 124.1 14.3 125 27.4
2005-01-28 12:25:41 51°20.292 2°45.109 122.6 12.6 124 26
2005-01-28 12:26:41 51°20.176 2°45.423 121.6 13.9 120 24.6
2005-01-28 12:27:41 51°20.066 2°45.734 121.8 13.1 116 16.7
2005-01-28 12:28:41 51°19.952 2°46.043 122 13.7 119 15.5
2005-01-28 12:29:41 51°19.837 2°46.356 122 14 121 19.1
2005-01-28 12:30:42 51°19.713 2°46.669 118 14.3 114 -999
2005-01-28 12:31:41 51°19.597 2°46.976 119.8 14.1 118 23.8
2005-01-28 12:32:40 51°19.485 2°47.278 122.3 13.3 119 24.4
2005-01-28 12:33:41 51°19.362 2°47.586 122.3 13.6 124 23.9
2005-01-28 12:34:41 51°19.25 2°47.89 123.3 13.1 122 22.1
2005-01-28 12:35:41 51°19.134 2°48.202 116.2 13.3 111 19.9
2005-01-28 12:36:42 51°19.023 2°48.521 123.8 14.2 126 17.3
2005-01-28 12:37:41 51°18.916 2°48.837 120.4 14.4 111 15
2005-01-28 12:38:41 51°18.809 2°49.159 121.1 13.8 115 13.4
2005-01-28 12:39:41 51°18.707 2°49.486 119.7 13.9 114 13.1
2005-01-28 12:40:41 51°18.6 2°49.823 122.7 13.6 115 15.3
2005-01-28 12:41:41 51°18.493 2°50.148 119.3 14 110 16.5
2005-01-28 12:42:41 51°18.387 2°50.475 119 13.7 119 16.7
2005-01-28 12:43:41 51°18.278 2°50.801 124.6 13.8 121 15.8
2005-01-28 12:44:41 51°18.17 2°51.122 116.8 13.2 118 15.2
2005-01-28 12:45:41 51°18.063 2°51.448 121.5 12.8 120 13.8
2005-01-28 12:46:42 51°17.957 2°51.771 125.1 13.4 124 12.9
2005-01-28 12:47:41 51°17.775 2°51.982 153.9 14.4 151 12.8
2005-01-28 12:48:40 51°17.572 2°52.125 164.8 12.7 159 13.2
2005-01-28 12:49:41 51°17.361 2°52.284 159.2 13 159 12.8
2005-01-28 12:50:40 51°17.163 2°52.466 159.8 14.7 152 12.1
2005-01-28 12:51:41 51°16.954 2°52.639 160.2 14.7 156 12.5
2005-01-28 12:52:41 51°16.75 2°52.797 161.1 14 155 12.5
2005-01-28 12:53:41 51°16.543 2°52.954 163.5 14.4 155 14.4
2005-01-28 12:54:41 51°16.339 2°53.101 159.5 12.3 157 15.1
2005-01-28 12:55:41 51°16.132 2°53.25 163.5 13.3 156 14.9
2005-01-28 12:56:41 51°15.925 2°53.396 162.4 13.6 154 14.4
2005-01-28 12:57:41 51°15.722 2°53.541 167.1 13 157 14.3
2005-01-28 12:58:41 51°15.519 2°53.691 158.8 12.9 154 13.5
2005-01-28 12:59:41 51°15.315 2°53.843 161.8 12.7 155 13
2005-01-28 13:00:41 51°15.112 2°53.985 160.7 13.1 154 12.2
2005-01-28 13:01:41 51°14.923 2°54.15 158.8 12.5 149 11.7
2005-01-28 13:02:41 51°14.744 2°54.358 150.2 13.2 141 13
2005-01-28 13:03:40 51°14.586 2°54.595 148.4 13.9 136 12.9
2005-01-28 13:04:41 51°14.451 2°54.877 135.5 13.4 126 13.6
2005-01-28 13:05:40 51°14.322 2°55.13 143.6 11.4 146 13.4
2005-01-28 13:06:40 51°14.21 2°55.338 136.8 9.5 136 13.4
2005-01-28 13:07:40 51°14.082 2°55.454 157.9 8.7 156 13
2005-01-28 13:08:41 51°13.947 2°55.551 157.4 8.8 154 13.5
2005-01-28 13:09:41 51°13.819 2°55.649 156.2 8.1 153 13.9
2005-01-28 13:10:41 51°13.725 2°55.768 134.9 6.8 132 14.3
2005-01-28 13:11:40 51°13.664 2°55.897 125.3 5.5 123 12.7
2005-01-28 13:12:40 51°13.624 2°56.007 123.7 4.3 120 12.8
2005-01-28 13:13:41 51°13.598 2°56.092 114.5 2.6 110 10.6